Time,TemperatureF,DewpointF,PressureIn,WindDirection,WindDirectionDegrees,WindSpeedMPH,WindSpeedGustMPH,Humidity,HourlyPrecipIn,Conditions,Clouds,dailyrainin,SolarRadiationWatts/m^2,SoftwareType,DateUTC
2013-07-18 00:04:00,69.8,25.7,30.17,ESE,112,3.0,0.0,19,0.00,,,0.00,1,WeatherHawk,2013-07-18 07:04:00,
2013-07-18 00:10:00,68.4,25.8,30.17,East,87,4.0,0.0,20,0.00,,,0.00,0,WeatherHawk,2013-07-18 07:10:00,
2013-07-18 00:16:00,68.9,26.2,30.17,ESE,103,3.0,0.0,20,0.00,,,0.00,0,WeatherHawk,2013-07-18 07:16:00,
2013-07-18 00:21:00,68.5,25.9,30.17,ESE,113,2.0,0.0,20,0.00,,,0.00,0,WeatherHawk,2013-07-18 07:21:00,
2013-07-18 00:26:00,68.0,26.6,30.17,ESE,104,4.0,0.0,21,0.00,,,0.00,0,WeatherHawk,2013-07-18 07:26:00,
2013-07-18 00:31:00,68.1,26.7,30.17,East,99,2.0,0.0,21,0.00,,,0.00,0,WeatherHawk,2013-07-18 07:31:00,
2013-07-18 00:36:00,67.0,26.9,30.17,NE,39,0.0,0.0,22,0.00,,,0.00,0,WeatherHawk,2013-07-18 07:36:00,
2013-07-18 00:41:00,67.2,30.2,30.17,NE,39,0.0,0.0,25,0.00,,,0.00,0,WeatherHawk,2013-07-18 07:41:00,
2013-07-18 00:46:00,66.3,29.4,30.17,NE,40,0.0,0.0,25,0.00,,,0.00,0,WeatherHawk,2013-07-18 07:46:00,
2013-07-18 00:51:00,66.9,30.9,30.17,NE,40,0.0,0.0,26,0.00,,,0.00,0,WeatherHawk,2013-07-18 07:51:00,
2013-07-18 00:56:00,66.4,30.4,30.17,NE,39,0.0,0.0,26,0.00,,,0.00,1,WeatherHawk,2013-07-18 07:56:00,
2013-07-18 01:01:00,65.8,29.9,30.17,NE,39,0.0,0.0,26,0.00,,,0.00,0,WeatherHawk,2013-07-18 08:01:00,
2013-07-18 01:06:00,65.8,30.0,30.18,NE,39,0.0,0.0,26,0.00,,,0.00,0,WeatherHawk,2013-07-18 08:06:00,
2013-07-18 01:11:00,66.4,29.5,30.17,East,101,0.0,0.0,25,0.00,,,0.00,0,WeatherHawk,2013-07-18 08:11:00,
2013-07-18 01:17:00,66.7,28.7,30.18,NE,36,0.0,0.0,24,0.00,,,0.00,0,WeatherHawk,2013-07-18 08:17:00,
2013-07-18 01:23:00,65.4,27.7,30.17,NE,45,2.0,0.0,24,0.00,,,0.00,0,WeatherHawk,2013-07-18 08:23:00,
2013-07-18 01:28:00,65.5,27.8,30.17,NE,45,0.0,0.0,24,0.00,,,0.00,0,WeatherHawk,2013-07-18 08:28:00,
2013-07-18 01:33:00,65.3,27.6,30.17,NE,45,0.0,0.0,24,0.00,,,0.00,0,WeatherHawk,2013-07-18 08:33:00,
2013-07-18 01:38:00,65.2,27.5,30.17,NE,45,0.0,0.0,24,0.00,,,0.00,0,WeatherHawk,2013-07-18 08:38:00,
2013-07-18 01:44:00,64.0,25.5,30.18,NNE,33,0.0,0.0,23,0.00,,,0.00,0,WeatherHawk,2013-07-18 08:44:00,
2013-07-18 01:49:00,63.8,26.3,30.17,NNE,12,0.0,0.0,24,0.00,,,0.00,0,WeatherHawk,2013-07-18 08:49:00,
2013-07-18 01:55:00,63.7,25.2,30.18,NNE,12,0.0,0.0,23,0.00,,,0.00,0,WeatherHawk,2013-07-18 08:55:00,
2013-07-18 02:00:00,62.9,26.5,30.18,NE,38,0.0,0.0,25,0.00,,,0.00,1,WeatherHawk,2013-07-18 09:00:00,
2013-07-18 02:06:00,62.8,28.4,30.18,NE,45,3.0,0.0,27,0.00,,,0.00,0,WeatherHawk,2013-07-18 09:06:00,
2013-07-18 04:24:00,58.4,27.1,30.19,SSW,193,0.0,-999.0,30,-99.99,,,0.00,0,WeatherHawk,2013-07-18 11:24:00,
2013-07-18 04:30:00,58.5,27.1,30.18,SSW,193,0.0,0.0,30,0.00,,,0.00,0,WeatherHawk,2013-07-18 11:30:00,
2013-07-18 04:35:00,57.5,27.1,30.18,NNW,335,0.0,0.0,31,0.00,,,0.00,1,WeatherHawk,2013-07-18 11:35:00,
2013-07-18 04:40:00,56.8,27.3,30.18,NNW,335,0.0,0.0,32,0.00,,,0.00,0,WeatherHawk,2013-07-18 11:40:00,
2013-07-18 04:45:00,57.7,26.5,30.18,North,9,0.0,0.0,30,0.00,,,0.00,1,WeatherHawk,2013-07-18 11:45:00,
2013-07-18 04:50:00,55.8,26.4,30.18,North,350,0.0,0.0,32,0.00,,,0.00,0,WeatherHawk,2013-07-18 11:50:00,
2013-07-18 04:55:00,57.2,27.7,30.18,WNW,294,0.0,0.0,32,0.00,,,0.00,1,WeatherHawk,2013-07-18 11:55:00,
2013-07-18 05:00:00,56.1,25.9,30.19,NNW,345,0.0,0.0,31,0.00,,,0.00,0,WeatherHawk,2013-07-18 12:00:00,
2013-07-18 05:05:00,56.5,27.7,30.18,NNW,345,0.0,0.0,33,0.00,,,0.00,0,WeatherHawk,2013-07-18 12:05:00,
2013-07-18 05:10:00,55.4,28.2,30.19,NNW,345,0.0,0.0,35,0.00,,,0.00,0,WeatherHawk,2013-07-18 12:10:00,
2013-07-18 05:15:00,56.3,27.6,30.19,WSW,247,0.0,0.0,33,0.00,,,0.00,1,WeatherHawk,2013-07-18 12:15:00,
2013-07-18 05:20:00,55.9,27.2,30.19,WSW,247,0.0,0.0,33,0.00,,,0.00,0,WeatherHawk,2013-07-18 12:20:00,
2013-07-18 05:25:00,54.8,26.3,30.19,WSW,247,0.0,0.0,33,0.00,,,0.00,0,WeatherHawk,2013-07-18 12:25:00,
2013-07-18 05:30:00,55.7,27.0,30.18,SSE,165,0.0,0.0,33,0.00,,,0.00,2,WeatherHawk,2013-07-18 12:30:00,
2013-07-18 05:35:00,55.4,26.7,30.19,WSW,246,0.0,0.0,33,0.00,,,0.00,2,WeatherHawk,2013-07-18 12:35:00,
2013-07-18 05:40:00,55.7,27.1,30.18,WNW,286,0.0,0.0,33,0.00,,,0.00,4,WeatherHawk,2013-07-18 12:40:00,
2013-07-18 05:46:00,55.5,26.2,30.19,WNW,283,0.0,0.0,32,0.00,,,0.00,6,WeatherHawk,2013-07-18 12:46:00,
2013-07-18 05:51:00,55.3,26.7,30.19,SSW,202,0.0,0.0,33,0.00,,,0.00,8,WeatherHawk,2013-07-18 12:51:00,
2013-07-18 05:56:00,55.6,27.7,30.19,WSW,257,0.0,0.0,34,0.00,,,0.00,9,WeatherHawk,2013-07-18 12:56:00,
2013-07-18 06:01:00,55.0,27.1,30.19,SSW,207,0.0,0.0,34,0.00,,,0.00,10,WeatherHawk,2013-07-18 13:01:00,
2013-07-18 06:06:00,54.7,26.9,30.19,SSW,207,0.0,0.0,34,0.00,,,0.00,12,WeatherHawk,2013-07-18 13:06:00,
2013-07-18 06:11:00,54.2,26.5,30.19,SSW,207,0.0,0.0,34,0.00,,,0.00,13,WeatherHawk,2013-07-18 13:11:00,
2013-07-18 06:16:00,53.9,27.6,30.20,SSW,207,0.0,0.0,36,0.00,,,0.00,15,WeatherHawk,2013-07-18 13:16:00,
2013-07-18 06:21:00,55.3,28.8,30.19,SSW,207,0.0,0.0,36,0.00,,,0.00,15,WeatherHawk,2013-07-18 13:21:00,
2013-07-18 06:26:00,54.2,27.1,30.19,SSW,207,0.0,0.0,35,0.00,,,0.00,21,WeatherHawk,2013-07-18 13:26:00,
2013-07-18 06:31:00,55.1,28.0,30.19,SSW,207,0.0,0.0,35,0.00,,,0.00,48,WeatherHawk,2013-07-18 13:31:00,
2013-07-18 06:36:00,56.2,26.8,30.19,SSW,207,0.0,0.0,32,0.00,,,0.00,91,WeatherHawk,2013-07-18 13:36:00,
2013-07-18 06:41:00,57.0,26.7,30.19,SSW,207,0.0,0.0,31,0.00,,,0.00,100,WeatherHawk,2013-07-18 13:41:00,
2013-07-18 06:46:00,55.1,25.8,30.20,SSW,207,0.0,0.0,32,0.00,,,0.00,24,WeatherHawk,2013-07-18 13:46:00,
2013-07-18 06:51:00,55.1,26.6,30.20,SSE,156,0.0,0.0,33,0.00,,,0.00,54,WeatherHawk,2013-07-18 13:51:00,
2013-07-18 06:56:00,57.1,26.7,30.19,SSE,156,0.0,0.0,31,0.00,,,0.00,134,WeatherHawk,2013-07-18 13:56:00,
2013-07-18 07:01:00,57.4,26.2,30.20,SSE,156,0.0,0.0,30,0.00,,,0.00,146,WeatherHawk,2013-07-18 14:01:00,
2013-07-18 07:06:00,58.9,25.8,30.20,SSE,156,0.0,0.0,28,0.00,,,0.00,156,WeatherHawk,2013-07-18 14:06:00,
2013-07-18 07:11:00,62.2,26.0,30.19,SSE,156,0.0,0.0,25,0.00,,,0.00,168,WeatherHawk,2013-07-18 14:11:00,
2013-07-18 07:17:00,61.4,24.3,30.20,WSW,255,0.0,0.0,24,0.00,,,0.00,183,WeatherHawk,2013-07-18 14:17:00,
2013-07-18 07:22:00,60.1,22.2,30.20,WSW,255,0.0,0.0,23,0.00,,,0.00,196,WeatherHawk,2013-07-18 14:22:00,
2013-07-18 07:28:00,60.5,20.3,30.20,WSW,255,0.0,0.0,21,0.00,,,0.00,208,WeatherHawk,2013-07-18 14:28:00,
2013-07-18 07:33:00,62.7,18.6,30.20,WSW,255,0.0,0.0,18,0.00,,,0.00,222,WeatherHawk,2013-07-18 14:33:00,
2013-07-18 07:39:00,58.8,18.9,30.20,WSW,255,0.0,0.0,21,0.00,,,0.00,238,WeatherHawk,2013-07-18 14:39:00,
2013-07-18 07:44:00,63.2,21.5,30.20,WSW,255,0.0,0.0,20,0.00,,,0.00,251,WeatherHawk,2013-07-18 14:44:00,
2013-07-18 07:50:00,64.0,17.0,30.20,WSW,255,0.0,0.0,16,0.00,,,0.00,267,WeatherHawk,2013-07-18 14:50:00,
2013-07-18 07:55:00,70.3,20.4,30.20,WSW,255,0.0,0.0,15,0.00,,,0.00,278,WeatherHawk,2013-07-18 14:55:00,
2013-07-18 08:00:00,61.7,17.8,30.20,West,275,0.0,0.0,18,0.00,,,0.00,290,WeatherHawk,2013-07-18 15:00:00,
2013-07-18 08:05:00,62.6,17.2,30.20,West,276,0.0,0.0,17,0.00,,,0.00,303,WeatherHawk,2013-07-18 15:05:00,
2013-07-18 08:11:00,64.5,18.7,30.19,West,272,0.0,0.0,17,0.00,,,0.00,317,WeatherHawk,2013-07-18 15:11:00,
2013-07-18 08:16:00,63.3,11.6,30.19,West,272,0.0,0.0,13,0.00,,,0.00,329,WeatherHawk,2013-07-18 15:16:00,
2013-07-18 08:21:00,63.0,16.1,30.19,WNW,288,1.0,0.0,16,0.00,,,0.00,343,WeatherHawk,2013-07-18 15:21:00,
2013-07-18 08:27:00,63.6,13.5,30.19,NW,319,0.0,0.0,14,0.00,,,0.00,358,WeatherHawk,2013-07-18 15:27:00,
2013-07-18 08:32:00,64.8,12.8,30.20,NW,316,0.0,0.0,13,0.00,,,0.00,371,WeatherHawk,2013-07-18 15:32:00,
2013-07-18 08:37:00,64.8,11.0,30.19,WNW,294,0.0,0.0,12,0.00,,,0.00,384,WeatherHawk,2013-07-18 15:37:00,
2013-07-18 08:43:00,65.5,13.3,30.19,WNW,286,0.0,0.0,13,0.00,,,0.00,395,WeatherHawk,2013-07-18 15:43:00,
2013-07-18 08:48:00,66.3,3.2,30.18,West,259,0.0,0.0,8,0.00,,,0.00,410,WeatherHawk,2013-07-18 15:48:00,
2013-07-18 08:53:00,70.7,13.6,30.19,NW,317,0.0,0.0,11,0.00,,,0.00,420,WeatherHawk,2013-07-18 15:53:00,
2013-07-18 08:58:00,67.3,1.1,30.18,NW,306,0.0,0.0,7,0.00,,,0.00,433,WeatherHawk,2013-07-18 15:58:00,
2013-07-18 09:04:00,68.0,4.5,30.19,WNW,288,0.0,0.0,8,0.00,,,0.00,446,WeatherHawk,2013-07-18 16:04:00,
2013-07-18 09:09:00,76.1,10.6,30.19,WNW,303,0.0,0.0,8,0.00,,,0.00,457,WeatherHawk,2013-07-18 16:09:00,
2013-07-18 09:15:00,70.5,3.4,30.18,West,269,0.0,0.0,7,0.00,,,0.00,470,WeatherHawk,2013-07-18 16:15:00,
2013-07-18 09:20:00,72.3,4.8,30.19,West,281,0.0,0.0,7,0.00,,,0.00,484,WeatherHawk,2013-07-18 16:20:00,
2013-07-18 09:25:00,70.9,9.3,30.18,NNW,333,2.0,0.0,9,0.00,,,0.00,469,WeatherHawk,2013-07-18 16:25:00,
2013-07-18 09:30:00,70.2,8.7,30.18,NE,44,4.0,0.0,9,0.00,,,0.00,505,WeatherHawk,2013-07-18 16:30:00,
2013-07-18 09:35:00,72.1,10.2,30.18,NNE,18,2.0,0.0,9,0.00,,,0.00,515,WeatherHawk,2013-07-18 16:35:00,
2013-07-18 09:40:00,70.2,3.3,30.18,NE,43,5.0,0.0,7,0.00,,,0.00,527,WeatherHawk,2013-07-18 16:40:00,
2013-07-18 09:46:00,72.0,12.5,30.17,NE,35,5.0,0.0,10,0.00,,,0.00,540,WeatherHawk,2013-07-18 16:46:00,
2013-07-18 09:51:00,72.3,7.7,30.17,NNE,12,5.0,0.0,8,0.00,,,0.00,550,WeatherHawk,2013-07-18 16:51:00,
2013-07-18 09:56:00,74.3,9.2,30.17,WNW,287,3.0,0.0,8,0.00,,,0.00,560,WeatherHawk,2013-07-18 16:56:00,
2013-07-18 10:01:00,73.3,8.5,30.17,North,0,5.0,0.0,8,0.00,,,0.00,570,WeatherHawk,2013-07-18 17:01:00,
2013-07-18 10:06:00,74.0,9.0,30.17,NNE,27,6.0,0.0,8,0.00,,,0.00,580,WeatherHawk,2013-07-18 17:06:00,
2013-07-18 10:11:00,74.0,9.0,30.17,North,4,5.0,0.0,8,0.00,,,0.00,590,WeatherHawk,2013-07-18 17:11:00,
2013-07-18 10:16:00,74.5,-0.8,30.17,North,8,6.0,0.0,5,0.00,,,0.00,598,WeatherHawk,2013-07-18 17:16:00,
2013-07-18 10:21:00,75.3,7.0,30.17,North,351,5.0,0.0,7,0.00,,,0.00,606,WeatherHawk,2013-07-18 17:21:00,
2013-07-18 10:26:00,75.7,0.0,30.16,NW,309,3.0,0.0,5,0.00,,,0.00,617,WeatherHawk,2013-07-18 17:26:00,
2013-07-18 10:31:00,75.9,0.2,30.17,NNW,334,6.0,0.0,5,0.00,,,0.00,626,WeatherHawk,2013-07-18 17:31:00,
2013-07-18 10:37:00,79.1,2.4,30.16,NNW,339,6.0,0.0,5,0.00,,,0.00,638,WeatherHawk,2013-07-18 17:37:00,
2013-07-18 10:42:00,77.1,4.9,30.16,North,3,6.0,0.0,6,0.00,,,0.00,645,WeatherHawk,2013-07-18 17:42:00,
2013-07-18 10:47:00,77.9,5.5,30.16,North,2,6.0,0.0,6,0.00,,,0.00,651,WeatherHawk,2013-07-18 17:47:00,
2013-07-18 10:52:00,78.2,1.7,30.17,North,1,3.0,0.0,5,0.00,,,0.00,660,WeatherHawk,2013-07-18 17:52:00,
2013-07-18 10:58:00,78.8,9.5,30.16,NE,39,6.0,0.0,7,0.00,,,0.00,669,WeatherHawk,2013-07-18 17:58:00,
2013-07-18 11:03:00,77.6,8.6,30.16,NNE,22,5.0,0.0,7,0.00,,,0.00,679,WeatherHawk,2013-07-18 18:03:00,
2013-07-18 11:08:00,79.7,-1.9,30.16,North,2,6.0,0.0,4,0.00,,,0.00,687,WeatherHawk,2013-07-18 18:08:00,
2013-07-18 11:13:00,77.7,-3.3,30.16,NNW,344,9.0,0.0,4,0.00,,,0.00,692,WeatherHawk,2013-07-18 18:13:00,
2013-07-18 11:18:00,80.1,3.1,30.16,NNW,338,6.0,0.0,5,0.00,,,0.00,699,WeatherHawk,2013-07-18 18:18:00,
2013-07-18 11:24:00,78.8,2.2,30.16,NW,317,6.0,0.0,5,0.00,,,0.00,706,WeatherHawk,2013-07-18 18:24:00,
2013-07-18 11:29:00,81.4,4.1,30.16,NNW,332,5.0,0.0,5,0.00,,,0.00,714,WeatherHawk,2013-07-18 18:29:00,
2013-07-18 11:35:00,82.9,5.1,30.15,WNW,282,0.0,0.0,5,0.00,,,0.00,721,WeatherHawk,2013-07-18 18:35:00,
2013-07-18 11:40:00,83.8,5.7,30.16,WSW,254,0.0,0.0,5,0.00,,,0.00,724,WeatherHawk,2013-07-18 18:40:00,
2013-07-18 11:45:00,83.2,5.3,30.15,SW,226,0.0,0.0,5,0.00,,,0.00,730,WeatherHawk,2013-07-18 18:45:00,
2013-07-18 11:50:00,80.3,3.2,30.14,WNW,299,7.0,0.0,5,0.00,,,0.00,734,WeatherHawk,2013-07-18 18:50:00,
2013-07-18 11:55:00,83.3,5.4,30.14,NNW,328,4.0,0.0,5,0.00,,,0.00,735,WeatherHawk,2013-07-18 18:55:00,
2013-07-18 12:00:00,84.0,5.8,30.14,NNW,340,3.0,0.0,5,0.00,,,0.00,740,WeatherHawk,2013-07-18 19:00:00,
2013-07-18 12:05:00,82.7,4.9,30.14,NE,44,2.0,-999.0,5,0.00,,,0.00,737,WeatherHawk,2013-07-18 19:05:00,
2013-07-18 12:10:00,84.5,6.2,30.13,North,0,2.0,0.0,5,0.00,,,0.00,743,WeatherHawk,2013-07-18 19:10:00,
2013-07-18 12:15:00,82.1,4.5,30.15,WNW,300,0.0,0.0,5,0.00,,,0.00,748,WeatherHawk,2013-07-18 19:15:00,
2013-07-18 12:20:00,83.5,5.5,30.14,NNE,21,4.0,0.0,5,0.00,,,0.00,754,WeatherHawk,2013-07-18 19:20:00,
2013-07-18 12:25:00,83.7,5.6,30.13,NNE,22,4.0,0.0,5,0.00,,,0.00,756,WeatherHawk,2013-07-18 19:25:00,
2013-07-18 12:30:00,83.2,5.3,30.13,NNE,17,5.0,0.0,5,0.00,,,0.00,760,WeatherHawk,2013-07-18 19:30:00,
2013-07-18 12:35:00,85.0,6.6,30.12,NE,56,2.0,0.0,5,0.00,,,0.00,762,WeatherHawk,2013-07-18 19:35:00,
2013-07-18 12:40:00,84.9,6.5,30.13,East,85,4.0,0.0,5,0.00,,,0.00,762,WeatherHawk,2013-07-18 19:40:00,
2013-07-18 12:45:00,87.1,8.0,30.12,NW,326,0.0,0.0,5,0.00,,,0.00,764,WeatherHawk,2013-07-18 19:45:00,
2013-07-18 12:50:00,86.5,7.6,30.12,NW,322,0.0,0.0,5,0.00,,,0.00,768,WeatherHawk,2013-07-18 19:50:00,
2013-07-18 12:55:00,87.6,8.4,30.12,NE,36,1.0,0.0,5,0.00,,,0.00,770,WeatherHawk,2013-07-18 19:55:00,
2013-07-18 13:00:00,86.6,7.6,30.11,NE,47,3.0,-999.0,5,0.00,,,0.00,766,WeatherHawk,2013-07-18 20:00:00,
2013-07-18 13:05:00,87.1,8.0,30.12,North,1,5.0,0.0,5,0.00,,,0.00,767,WeatherHawk,2013-07-18 20:05:00,
2013-07-18 13:10:00,85.1,6.6,30.12,ENE,64,5.0,0.0,5,0.00,,,0.00,766,WeatherHawk,2013-07-18 20:10:00,
2013-07-18 13:15:00,84.9,6.5,30.10,NE,34,3.0,0.0,5,0.00,,,0.00,764,WeatherHawk,2013-07-18 20:15:00,
2013-07-18 13:20:00,84.9,6.5,30.10,NE,55,6.0,0.0,5,0.00,,,0.00,763,WeatherHawk,2013-07-18 20:20:00,
2013-07-18 13:25:00,87.9,8.6,30.11,NE,36,3.0,0.0,5,0.00,,,0.00,762,WeatherHawk,2013-07-18 20:25:00,
2013-07-18 13:30:00,86.1,7.3,30.10,NNE,19,0.0,0.0,5,0.00,,,0.00,759,WeatherHawk,2013-07-18 20:30:00,
2013-07-18 13:36:00,87.4,8.2,30.10,North,3,7.0,0.0,5,0.00,,,0.00,758,WeatherHawk,2013-07-18 20:36:00,
2013-07-18 13:41:00,85.9,7.2,30.10,WNW,301,10.0,0.0,5,0.00,,,0.00,754,WeatherHawk,2013-07-18 20:41:00,
2013-07-18 13:46:00,90.2,10.2,30.10,North,349,0.0,0.0,5,0.00,,,0.00,754,WeatherHawk,2013-07-18 20:46:00,
2013-07-18 13:51:00,87.2,8.1,30.10,NNW,338,0.0,0.0,5,0.00,,,0.00,751,WeatherHawk,2013-07-18 20:51:00,
2013-07-18 13:56:00,88.0,8.6,30.10,NNW,337,8.0,0.0,5,0.00,,,0.00,752,WeatherHawk,2013-07-18 20:56:00,
2013-07-18 14:02:00,89.8,9.9,30.10,NNE,15,6.0,0.0,5,0.00,,,0.00,745,WeatherHawk,2013-07-18 21:02:00,
2013-07-18 14:07:00,88.3,8.8,30.10,NNE,20,4.0,0.0,5,0.00,,,0.00,743,WeatherHawk,2013-07-18 21:07:00,
2013-07-18 14:12:00,91.8,6.3,30.09,South,172,0.0,0.0,4,0.00,,,0.00,741,WeatherHawk,2013-07-18 21:12:00,
2013-07-18 14:17:00,91.6,11.2,30.09,North,351,4.0,0.0,5,0.00,,,0.00,737,WeatherHawk,2013-07-18 21:17:00,
2013-07-18 14:22:00,90.0,10.1,30.09,SSW,213,2.0,0.0,5,0.00,,,0.00,732,WeatherHawk,2013-07-18 21:22:00,
2013-07-18 14:27:00,88.2,8.8,30.08,NNE,31,7.0,0.0,5,0.00,,,0.00,726,WeatherHawk,2013-07-18 21:27:00,
2013-07-18 14:32:00,90.9,10.7,30.08,NNW,333,6.0,0.0,5,0.00,,,0.00,723,WeatherHawk,2013-07-18 21:32:00,
2013-07-18 14:37:00,90.9,10.7,30.08,NNE,19,3.0,0.0,5,0.00,,,0.00,719,WeatherHawk,2013-07-18 21:37:00,
2013-07-18 14:42:00,89.5,9.7,30.08,NE,55,4.0,0.0,5,0.00,,,0.00,712,WeatherHawk,2013-07-18 21:42:00,
2013-07-18 14:47:00,90.8,10.6,30.07,ESE,104,5.0,0.0,5,0.00,,,0.00,706,WeatherHawk,2013-07-18 21:47:00,
2013-07-18 14:52:00,90.9,10.7,30.07,North,7,6.0,0.0,5,0.00,,,0.00,702,WeatherHawk,2013-07-18 21:52:00,
2013-07-18 14:58:00,93.4,12.4,30.08,North,2,2.0,0.0,5,0.00,,,0.00,695,WeatherHawk,2013-07-18 21:58:00,
2013-07-18 15:03:00,89.2,9.5,30.07,ENE,76,5.0,0.0,5,0.00,,,0.00,688,WeatherHawk,2013-07-18 22:03:00,
2013-07-18 15:08:00,88.7,9.2,30.07,East,94,5.0,0.0,5,0.00,,,0.00,682,WeatherHawk,2013-07-18 22:08:00,
2013-07-18 15:13:00,89.8,9.9,30.07,North,5,2.0,0.0,5,0.00,,,0.00,674,WeatherHawk,2013-07-18 22:13:00,
2013-07-18 15:18:00,89.8,9.9,30.07,SE,125,8.0,0.0,5,0.00,,,0.00,667,WeatherHawk,2013-07-18 22:18:00,
2013-07-18 15:23:00,96.1,14.3,30.07,ESE,116,0.0,0.0,5,0.00,,,0.00,657,WeatherHawk,2013-07-18 22:23:00,
2013-07-18 15:28:00,91.5,11.1,30.06,SE,134,2.0,0.0,5,0.00,,,0.00,651,WeatherHawk,2013-07-18 22:28:00,
2013-07-18 15:33:00,94.3,13.0,30.07,East,94,0.0,0.0,5,0.00,,,0.00,644,WeatherHawk,2013-07-18 22:33:00,
2013-07-18 15:38:00,92.8,12.0,30.06,East,91,5.0,0.0,5,0.00,,,0.00,633,WeatherHawk,2013-07-18 22:38:00,
2013-07-18 15:43:00,92.0,11.4,30.06,ESE,108,4.0,0.0,5,0.00,,,0.00,629,WeatherHawk,2013-07-18 22:43:00,
2013-07-18 15:48:00,94.4,13.1,30.06,ESE,108,0.0,0.0,5,0.00,,,0.00,623,WeatherHawk,2013-07-18 22:48:00,
2013-07-18 15:53:00,94.6,13.2,30.06,NNW,337,3.0,0.0,5,0.00,,,0.00,612,WeatherHawk,2013-07-18 22:53:00,
2013-07-18 15:59:00,89.4,9.6,30.06,NE,48,7.0,0.0,5,0.00,,,0.00,600,WeatherHawk,2013-07-18 22:59:00,
2013-07-18 16:04:00,93.2,12.3,30.05,SSW,201,0.0,0.0,5,0.00,,,0.00,592,WeatherHawk,2013-07-18 23:04:00,
2013-07-18 16:09:00,90.8,10.6,30.05,NNE,13,6.0,0.0,5,0.00,,,0.00,583,WeatherHawk,2013-07-18 23:09:00,
2013-07-18 16:14:00,91.8,11.3,30.05,NW,323,9.0,0.0,5,0.00,,,0.00,574,WeatherHawk,2013-07-18 23:14:00,
2013-07-18 16:19:00,90.3,10.3,30.03,NW,320,13.0,0.0,5,0.00,,,0.00,565,WeatherHawk,2013-07-18 23:19:00,
2013-07-18 16:24:00,90.9,10.6,30.05,NW,319,10.0,0.0,5,0.00,,,0.00,556,WeatherHawk,2013-07-18 23:24:00,
2013-07-18 16:29:00,92.2,11.6,30.04,NNW,340,13.0,0.0,5,0.00,,,0.00,545,WeatherHawk,2013-07-18 23:29:00,
2013-07-18 16:34:00,92.3,11.6,30.04,NNE,16,8.0,0.0,5,0.00,,,0.00,535,WeatherHawk,2013-07-18 23:34:00,
2013-07-18 16:39:00,90.1,10.1,30.05,North,351,10.0,0.0,5,0.00,,,0.00,525,WeatherHawk,2013-07-18 23:39:00,
2013-07-18 16:44:00,91.5,11.1,30.04,NNW,338,7.0,0.0,5,0.00,,,0.00,516,WeatherHawk,2013-07-18 23:44:00,
2013-07-18 16:49:00,91.8,11.3,30.04,NNW,339,7.0,0.0,5,0.00,,,0.00,505,WeatherHawk,2013-07-18 23:49:00,
2013-07-18 16:54:00,93.4,12.4,30.04,North,0,10.0,0.0,5,0.00,,,0.00,493,WeatherHawk,2013-07-18 23:54:00,
2013-07-18 16:59:00,92.6,11.9,30.03,NW,311,9.0,0.0,5,0.00,,,0.00,481,WeatherHawk,2013-07-18 23:59:00,
2013-07-18 17:04:00,92.9,12.0,30.03,NW,314,9.0,0.0,5,0.00,,,0.00,469,WeatherHawk,2013-07-19 00:04:00,
2013-07-18 17:09:00,92.4,11.7,30.03,North,3,11.0,0.0,5,0.00,,,0.00,458,WeatherHawk,2013-07-19 00:09:00,
2013-07-18 17:14:00,90.7,10.5,30.04,NNE,20,11.0,0.0,5,0.00,,,0.00,447,WeatherHawk,2013-07-19 00:14:00,
2013-07-18 17:19:00,90.7,10.6,30.03,NE,45,8.0,0.0,5,0.00,,,0.00,435,WeatherHawk,2013-07-19 00:19:00,
2013-07-18 17:24:00,91.8,11.3,30.03,WNW,295,9.0,0.0,5,0.00,,,0.00,424,WeatherHawk,2013-07-19 00:24:00,
2013-07-18 17:29:00,95.1,13.6,30.04,North,10,11.0,0.0,5,0.00,,,0.00,412,WeatherHawk,2013-07-19 00:29:00,
2013-07-18 17:34:00,92.3,11.6,30.04,NW,307,11.0,0.0,5,0.00,,,0.00,400,WeatherHawk,2013-07-19 00:34:00,
2013-07-18 17:39:00,92.8,12.0,30.03,WNW,289,6.0,0.0,5,0.00,,,0.00,391,WeatherHawk,2013-07-19 00:39:00,
2013-07-18 17:45:00,94.0,12.9,30.04,North,3,8.0,0.0,5,0.00,,,0.00,375,WeatherHawk,2013-07-19 00:45:00,
2013-07-18 17:50:00,92.3,11.7,30.04,NNW,331,12.0,0.0,5,0.00,,,0.00,364,WeatherHawk,2013-07-19 00:50:00,
2013-07-18 17:55:00,94.1,12.9,30.03,NNE,22,14.0,0.0,5,0.00,,,0.00,352,WeatherHawk,2013-07-19 00:55:00,
2013-07-18 18:00:00,90.5,10.4,30.03,NNW,327,11.0,0.0,5,0.00,,,0.00,341,WeatherHawk,2013-07-19 01:00:00,
2013-07-18 18:05:00,91.8,11.3,30.03,North,0,10.0,0.0,5,0.00,,,0.00,328,WeatherHawk,2013-07-19 01:05:00,
2013-07-18 18:10:00,92.3,11.6,30.03,North,1,7.0,0.0,5,0.00,,,0.00,316,WeatherHawk,2013-07-19 01:10:00,
2013-07-18 18:15:00,93.7,12.6,30.03,NNE,16,9.0,0.0,5,0.00,,,0.00,304,WeatherHawk,2013-07-19 01:15:00,
2013-07-18 18:20:00,92.3,11.7,30.02,NNW,338,15.0,0.0,5,0.00,,,0.00,291,WeatherHawk,2013-07-19 01:20:00,
2013-07-18 18:25:00,91.3,10.9,30.03,NW,321,27.0,0.0,5,0.00,,,0.00,279,WeatherHawk,2013-07-19 01:25:00,
2013-07-18 18:30:00,90.6,10.5,30.03,NNW,333,16.0,0.0,5,0.00,,,0.00,266,WeatherHawk,2013-07-19 01:30:00,
2013-07-18 18:35:00,89.7,9.8,30.02,NW,323,21.0,0.0,5,0.00,,,0.00,254,WeatherHawk,2013-07-19 01:35:00,
2013-07-18 18:40:00,90.9,10.7,30.04,NNW,339,11.0,0.0,5,0.00,,,0.00,242,WeatherHawk,2013-07-19 01:40:00,
2013-07-18 18:45:00,89.2,9.5,30.04,NW,322,20.0,0.0,5,0.00,,,0.00,230,WeatherHawk,2013-07-19 01:45:00,
2013-07-18 18:50:00,90.0,10.0,30.04,NW,319,14.0,0.0,5,0.00,,,0.00,218,WeatherHawk,2013-07-19 01:50:00,
2013-07-18 18:55:00,89.0,9.4,30.04,NW,326,14.0,0.0,5,0.00,,,0.00,205,WeatherHawk,2013-07-19 01:55:00,
2013-07-18 19:00:00,89.0,9.4,30.05,NNW,341,16.0,0.0,5,0.00,,,0.00,193,WeatherHawk,2013-07-19 02:00:00,
2013-07-18 19:06:00,89.3,9.5,30.04,NNW,337,14.0,0.0,5,0.00,,,0.00,179,WeatherHawk,2013-07-19 02:06:00,
2013-07-18 19:11:00,88.7,9.1,30.04,NNW,335,13.0,0.0,5,0.00,,,0.00,168,WeatherHawk,2013-07-19 02:11:00,
2013-07-18 19:16:00,88.9,9.3,30.04,NW,307,13.0,0.0,5,0.00,,,0.00,158,WeatherHawk,2013-07-19 02:16:00,
2013-07-18 19:21:00,88.8,9.2,30.05,North,351,23.0,0.0,5,0.00,,,0.00,146,WeatherHawk,2013-07-19 02:21:00,
2013-07-18 19:26:00,87.5,8.3,30.05,North,350,21.0,0.0,5,0.00,,,0.00,135,WeatherHawk,2013-07-19 02:26:00,
2013-07-18 19:31:00,88.0,8.6,30.05,NNW,329,16.0,0.0,5,0.00,,,0.00,124,WeatherHawk,2013-07-19 02:31:00,
2013-07-18 19:36:00,87.4,8.2,30.06,NNW,337,17.0,0.0,5,0.00,,,0.00,113,WeatherHawk,2013-07-19 02:36:00,
2013-07-18 19:41:00,87.1,8.0,30.06,North,0,13.0,0.0,5,0.00,,,0.00,103,WeatherHawk,2013-07-19 02:41:00,
2013-07-18 19:46:00,86.4,7.5,30.06,NW,324,22.0,0.0,5,0.00,,,0.00,93,WeatherHawk,2013-07-19 02:46:00,
2013-07-18 19:51:00,86.3,7.5,30.06,NW,322,22.0,0.0,5,0.00,,,0.00,85,WeatherHawk,2013-07-19 02:51:00,
2013-07-18 19:56:00,86.5,7.6,30.05,NNW,347,18.0,0.0,5,0.00,,,0.00,76,WeatherHawk,2013-07-19 02:56:00,
2013-07-18 20:01:00,86.5,7.6,30.07,North,0,19.0,0.0,5,0.00,,,0.00,67,WeatherHawk,2013-07-19 03:01:00,
2013-07-18 20:06:00,86.2,7.4,30.07,NE,38,18.0,0.0,5,0.00,,,0.00,59,WeatherHawk,2013-07-19 03:06:00,
2013-07-18 20:11:00,85.4,6.9,30.07,North,7,16.0,0.0,5,0.00,,,0.00,49,WeatherHawk,2013-07-19 03:11:00,
2013-07-18 20:16:00,85.0,6.6,30.06,NNW,344,16.0,0.0,5,0.00,,,0.00,42,WeatherHawk,2013-07-19 03:16:00,
2013-07-18 20:21:00,84.5,6.2,30.08,North,0,16.0,0.0,5,0.00,,,0.00,32,WeatherHawk,2013-07-19 03:21:00,
2013-07-18 20:26:00,84.0,5.8,30.09,NW,325,18.0,0.0,5,0.00,,,0.00,26,WeatherHawk,2013-07-19 03:26:00,
2013-07-18 20:31:00,83.4,5.4,30.08,North,0,13.0,0.0,5,0.00,,,0.00,15,WeatherHawk,2013-07-19 03:31:00,
2013-07-18 20:36:00,83.0,5.2,30.09,NNE,24,14.0,0.0,5,0.00,,,0.00,8,WeatherHawk,2013-07-19 03:36:00,
2013-07-18 20:41:00,83.0,5.2,30.08,NNW,347,18.0,0.0,5,0.00,,,0.00,6,WeatherHawk,2013-07-19 03:41:00,
2013-07-18 20:46:00,82.7,5.0,30.09,NNW,344,16.0,0.0,5,0.00,,,0.00,3,WeatherHawk,2013-07-19 03:46:00,
2013-07-18 20:51:00,82.1,4.5,30.09,NW,318,11.0,0.0,5,0.00,,,0.00,3,WeatherHawk,2013-07-19 03:51:00,
2013-07-18 20:56:00,82.0,4.5,30.09,North,6,10.0,0.0,5,0.00,,,0.00,1,WeatherHawk,2013-07-19 03:56:00,
2013-07-18 21:01:00,81.9,4.3,30.10,NW,311,16.0,0.0,5,0.00,,,0.00,0,WeatherHawk,2013-07-19 04:01:00,
2013-07-18 21:02:00,80.9,3.7,30.09,NNW,340,10.0,0.0,5,0.00,,,0.00,0,WeatherHawk,2013-07-19 04:02:00,
2013-07-18 21:03:00,81.4,4.0,30.10,NNE,21,17.0,0.0,5,0.00,,,0.00,0,WeatherHawk,2013-07-19 04:03:00,
2013-07-18 21:05:00,81.5,4.1,30.09,NW,323,15.0,0.0,5,0.00,,,0.00,1,WeatherHawk,2013-07-19 04:05:00,
2013-07-18 21:11:00,80.7,3.6,30.10,North,349,12.0,0.0,5,0.00,,,0.00,1,WeatherHawk,2013-07-19 04:11:00,
2013-07-18 21:16:00,80.5,3.4,30.10,NW,318,10.0,0.0,5,0.00,,,0.00,1,WeatherHawk,2013-07-19 04:16:00,
2013-07-18 21:21:00,80.4,3.3,30.11,North,351,16.0,0.0,5,0.00,,,0.00,0,WeatherHawk,2013-07-19 04:21:00,
2013-07-18 21:26:00,79.7,2.8,30.11,North,0,12.0,0.0,5,0.00,,,0.00,0,WeatherHawk,2013-07-19 04:26:00,
2013-07-18 21:32:00,79.5,2.7,30.10,North,1,14.0,0.0,5,0.00,,,0.00,0,WeatherHawk,2013-07-19 04:32:00,
2013-07-18 21:37:00,79.3,2.5,30.10,North,5,11.0,0.0,5,0.00,,,0.00,0,WeatherHawk,2013-07-19 04:37:00,
2013-07-18 21:43:00,78.4,1.9,30.12,NNE,14,8.0,0.0,5,0.00,,,0.00,0,WeatherHawk,2013-07-19 04:43:00,
2013-07-18 21:49:00,79.2,2.5,30.12,NE,39,12.0,0.0,5,0.00,,,0.00,0,WeatherHawk,2013-07-19 04:49:00,
2013-07-18 21:54:00,77.8,1.5,30.12,NNE,30,5.0,0.0,5,0.00,,,0.00,0,WeatherHawk,2013-07-19 04:54:00,
2013-07-18 21:59:00,77.8,1.5,30.12,NNE,16,7.0,0.0,5,0.00,,,0.00,0,WeatherHawk,2013-07-19 04:59:00,
2013-07-18 22:04:00,77.1,1.0,30.13,NNE,32,7.0,0.0,5,0.00,,,0.00,1,WeatherHawk,2013-07-19 05:04:00,
2013-07-18 22:10:00,77.6,1.4,30.12,NE,39,10.0,0.0,5,0.00,,,0.00,0,WeatherHawk,2013-07-19 05:10:00,
2013-07-18 22:15:00,76.7,0.7,30.13,North,8,6.0,-999.0,5,0.00,,,0.00,0,WeatherHawk,2013-07-19 05:15:00,
2013-07-18 22:20:00,77.9,1.5,30.12,NNE,13,9.0,0.0,5,0.00,,,0.00,0,WeatherHawk,2013-07-19 05:20:00,
2013-07-18 22:25:00,77.3,1.2,30.13,NNE,22,10.0,-999.0,5,0.00,,,0.00,0,WeatherHawk,2013-07-19 05:25:00,
2013-07-18 22:30:00,78.1,1.7,30.13,North,0,15.0,0.0,5,0.00,,,0.00,0,WeatherHawk,2013-07-19 05:30:00,
2013-07-18 22:35:00,78.0,1.6,30.12,North,0,9.0,0.0,5,0.00,,,0.00,0,WeatherHawk,2013-07-19 05:35:00,
2013-07-18 22:40:00,78.1,1.7,30.13,North,9,10.0,0.0,5,0.00,,,0.00,0,WeatherHawk,2013-07-19 05:40:00,
2013-07-18 22:46:00,77.0,1.0,30.12,North,11,11.0,0.0,5,0.00,,,0.00,0,WeatherHawk,2013-07-19 05:46:00,
2013-07-18 22:51:00,76.9,0.9,30.12,NNE,18,10.0,0.0,5,0.00,,,0.00,0,WeatherHawk,2013-07-19 05:51:00,
2013-07-18 22:56:00,77.3,1.2,30.12,North,0,11.0,0.0,5,0.00,,,0.00,0,WeatherHawk,2013-07-19 05:56:00,
2013-07-18 23:01:00,78.5,2.0,30.12,NNE,12,14.0,0.0,5,0.00,,,0.00,0,WeatherHawk,2013-07-19 06:01:00,
2013-07-18 23:06:00,76.7,0.7,30.12,North,6,9.0,0.0,5,0.00,,,0.00,1,WeatherHawk,2013-07-19 06:06:00,
2013-07-18 23:11:00,78.0,1.6,30.12,North,0,9.0,0.0,5,0.00,,,0.00,0,WeatherHawk,2013-07-19 06:11:00,
2013-07-18 23:16:00,76.3,0.5,30.12,NNW,347,5.0,0.0,5,0.00,,,0.00,0,WeatherHawk,2013-07-19 06:16:00,
2013-07-18 23:22:00,75.2,-0.4,30.12,ESE,110,3.0,0.0,5,0.00,,,0.00,0,WeatherHawk,2013-07-19 06:22:00,
2013-07-18 23:27:00,74.6,-0.7,30.13,NNE,14,0.0,0.0,5,0.00,,,0.00,0,WeatherHawk,2013-07-19 06:27:00,
2013-07-18 23:32:00,75.2,-0.3,30.13,ENE,61,5.0,0.0,5,0.00,,,0.00,0,WeatherHawk,2013-07-19 06:32:00,
2013-07-18 23:37:00,74.2,-1.0,30.13,NNE,19,0.0,0.0,5,0.00,,,0.00,0,WeatherHawk,2013-07-19 06:37:00,
2013-07-18 23:42:00,73.0,-1.9,30.13,North,9,0.0,0.0,5,0.00,,,0.00,0,WeatherHawk,2013-07-19 06:42:00,
2013-07-18 23:47:00,73.3,-1.7,30.14,WNW,284,1.0,0.0,5,0.00,,,0.00,0,WeatherHawk,2013-07-19 06:47:00,
2013-07-18 23:52:00,73.8,-1.3,30.14,NNE,16,0.0,0.0,5,0.00,,,0.00,0,WeatherHawk,2013-07-19 06:52:00,
2013-07-18 23:57:00,74.7,-0.7,30.13,NE,46,0.0,0.0,5,0.00,,,0.00,0,WeatherHawk,2013-07-19 06:57:00,